WEATHER DATA

YESTERDAY
Time Temp. Dewp. Hum. Wind dir Wind speed Wind gust Bar.
07:52 20.1 15.3 74 0 0 1013.4
08:02 20.9 15.9 73 0 0 1013.4
08:12 21.8 16.3 71 0 0 1013.4
08:22 22.5 16.5 69 0 0 1013.4
08:32 23 16.5 67 0 0 1013.5
08:43 23.6 16.9 66 0 0 1013.7
08:52 24.2 17.2 65 0 0 1013.6
09:02 24.6 17.3 64 0 0 1013.6
09:12 25 17.5 63 0 0 1013.7
09:23 25.4 17.6 62 0 0 1013.7
09:32 25.7 17.4 60 0 0 1013.7
09:42 26.1 17.5 59 0 0 1013.8
09:53 26.3 17.4 58 0 0 1013.7
10:03 26.6 17.4 57 0 0 1013.7
10:12 26.8 17.3 56 0 0 1013.7
10:23 27.2 17.7 56 0 0 1013.8
10:33 27.5 17.9 56 0 0 1013.7
10:43 27.9 18 55 0 0 1013.8
10:52 28.1 17.9 54 0 0 1013.9
11:03 28.4 18.2 54 0 0 1013.9
11:13 28.6 18.1 53 0 0 1013.9
11:23 28.9 18.4 53 0 0 1014
11:33 29.1 18.2 52 0 0 1014.1
11:43 29.2 18 51 0 0 1013.9
11:53 29.5 18.3 51 0 0 1013.9
12:03 29.7 18.2 50 0 0 1013.9
12:14 29.8 17.9 49 0 0 1013.9
12:23 30 17.8 48 0 0 1013.7
12:33 30.1 17.6 47 0 0 1013.8
12:44 30.3 18.1 48 0 0 1013.8
12:54 30.4 17.8 47 0 0 1013.6
13:03 30.5 17.9 47 0 0 1013.6
13:13 30.6 17.7 46 0 0 1013.5
13:24 30.7 17.8 46 0 0 1013.5
13:34 30.8 17.8 46 0 0 1013.4
13:43 30.9 17.2 44 0 0 1013.3
13:54 30.9 17.2 44 0 0 1013.2
14:04 31 17.3 44 0 0 1013.2
14:14 31.2 17.5 44 0 0 1013.1
14:24 31.2 17.1 43 0 0 1013
14:34 31.3 17.2 43 0 0 1013.1
14:44 31.3 16.9 42 0 0 1012.9
14:54 31.3 16.9 42 0 0 1012.9
15:05 31.4 16.9 42 0 0 1012.9
15:14 31.5 16.7 41 0 0 1012.9
15:24 31.7 16.8 41 0 0 1012.8
15:34 31.8 16.9 41 0 0 1012.7
15:45 31.8 16.9 41 0 0 1012.6
15:55 31.9 17 41 0 0 1012.6
16:04 31.9 17 41 0 0 1012.6
16:15 31.9 16.6 40 0 0 1012.6
16:25 31.9 16.6 40 0 0 1012.6
16:35 31.7 16.8 41 0 0 1012.4
16:45 31.7 16.8 41 0 0 1012.3
16:55 31.7 16.8 41 0 0 1012.3
17:05 31.7 16.8 41 0 0 1012.4
17:15 31.6 16.7 41 0 0 1012.4
17:26 31.6 16.7 41 0 0 1012.6
17:36 31.4 16.6 41 0 0 1012.6
17:45 31.3 16.9 42 0 0 1012.4
17:55 31.2 16.8 42 0 0 1012.4
18:06 31.1 16.7 42 0 0 1012.4
18:16 31 17.3 44 0 0 1012.3
18:26 30.9 16.9 43 0 0 1012.4
18:36 30.8 16.8 43 0 0 1012.3
18:46 30.4 17.8 47 0 0 1012.3
18:56 30 18.1 49 0 0 1012.4
19:06 29.5 17.7 49 0 0 1012.4
19:16 29 17.5 50 0 0 1012.4
19:26 28.6 17.5 51 0 0 1012.6
19:36 28.1 17.3 52 0 0 1012.4
19:47 27.6 16.9 52 0 0 1012.4
19:57 27.2 16.5 52 0 0 1012.4
20:06 26.7 16 52 0 0 1012.4
20:16 26.3 16 53 0 0 1012.7
20:27 25.9 15.6 53 0 0 1012.7
20:37 25.5 15.2 53 0 0 1012.7
20:47 25.1 15.4 55 0 0 1012.8
20:57 24.8 15.2 55 0 0 1012.9
21:07 24.4 15.1 56 0 0 1012.8
21:17 24.1 14.8 56 0 0 1012.8
21:27 23.8 14.8 57 0 0 1012.8
21:38 23.6 14.6 57 0 0 1012.9
21:47 23.4 14.4 57 0 0 1012.8
21:57 23.2 14.5 58 0 0 1012.6
22:07 22.9 14.5 59 0 0 1012.6
22:18 22.6 14.2 59 0 0 1012.6
22:28 22.4 14.3 60 0 0 1012.7
22:37 22.2 14.1 60 0 0 1012.7
22:48 22 13.9 60 0 0 1012.7
22:58 21.8 14 61 0 0 1012.8
23:08 21.6 14 62 0 0 1013.1
23:18 21.4 13.8 62 0 0 1013.3
23:28 21.3 14 63 0 0 1013.4
23:38 21.2 13.9 63 0 0 1013.5
23:48 21.2 13.9 63 0 0 1013.4
23:58 21.1 13.8 63 0 0 1013.3

DAY STATISTIC

2022-08-17
TEMPERATURE
AVERAGE
27.6
HIGH
31.9
15:55
LOW
20.1
07:52
PRESSURE
AVERAGE
1013.1
HIGH
1014.1
11:33
LOW
1012.3
16:45
DEWPOINT
AVERAGE
16.6
HIGH
18.4
11:23
LOW
13.8
23:18
HUMIDITY
AVERAGE
52
HIGH
74
07:52
LOW
40
16:15
WIND SPEED
AVERAGE
0.0
HIGH
0.0
22:57
WIND GUST
AVERAGE
0.0
HIGH
0.0
22:57
WIND DIRECTION
PREVAILING
%
TEMPERATURE (°C)
LOW
20.1
HIGH
31.9
AVERAGE
27.6
PRESSURE (hpa)
LOW
1012.3
HIGH
1014.1
AVERAGE
1013.1
DEVICE